Time;durP1;ratioP1;P1;durP2;ratioP2;P2;SDS_P1;SDS_P2;PMS_P1;PMS_P2;Temp;Humidity;BMP_temperature;BMP_pressure;BME280_temperature;BME280_humidity;BME280_pressure;Samples;Min_cycle;Max_cycle;Signal;HPM_P1;HPM_P2
2021/03/02 00:01:48;;;;;;;1999.90;999.90;;;;;;;2.72;76.15;100033.47;4998487;28;20100;-66
2021/03/02 00:04:14;;;;;;;1999.90;999.90;;;;;;;2.75;75.77;100031.09;5000741;28;20041;-66
2021/03/02 00:06:41;;;;;;;1999.90;999.90;;;;;;;2.66;75.65;100032.50;5002046;28;20104;-66
2021/03/02 00:09:07;;;;;;;1999.90;999.90;;;;;;;2.52;75.51;100037.31;5004698;28;20041;-66
2021/03/02 00:11:43;;;;;;;1999.90;999.90;;;;;;;2.56;76.00;100037.69;4998990;28;20497;-66
2021/03/02 00:14:09;;;;;;;1999.90;999.90;;;;;;;2.60;75.64;100028.78;4998939;28;20053;-66
2021/03/02 00:16:37;;;;;;;1999.90;999.90;;;;;;;2.31;76.45;100038.66;5004083;28;20283;-66
2021/03/02 00:19:15;;;;;;;1999.90;999.90;;;;;;;2.32;76.65;100032.13;5002562;28;20061;-66
2021/03/02 00:21:49;;;;;;;1999.90;999.90;;;;;;;2.42;76.30;100029.66;5005634;28;20132;-66
2021/03/02 00:24:28;;;;;;;1999.90;999.90;;;;;;;2.59;76.29;100034.47;5002734;28;20057;-66
2021/03/02 00:26:56;;;;;;;1999.90;999.90;;;;;;;2.62;76.46;100028.56;5003406;28;20053;-66
2021/03/02 00:29:23;;;;;;;1999.90;999.90;;;;;;;2.64;76.42;100032.72;5002586;28;20057;-66
2021/03/02 00:31:50;;;;;;;1999.90;999.90;;;;;;;2.69;75.89;100036.66;5003548;28;20057;-66
2021/03/02 00:34:16;;;;;;;1999.90;999.90;;;;;;;2.58;76.06;100041.03;4999308;28;20471;-66
2021/03/02 00:36:43;;;;;;;1999.90;999.90;;;;;;;2.60;76.01;100045.19;4997187;28;20060;-66
2021/03/02 00:39:09;;;;;;;1999.90;999.90;;;;;;;2.58;75.90;100046.50;5001774;28;20509;-66
2021/03/02 00:41:35;;;;;;;1999.90;999.90;;;;;;;2.54;75.71;100048.00;5002066;28;20046;-66
2021/03/02 00:44:02;;;;;;;1999.90;999.90;;;;;;;2.43;76.03;100049.63;4999909;28;20050;-66
2021/03/02 00:46:28;;;;;;;1999.90;999.90;;;;;;;2.41;76.02;100041.69;5000107;28;20042;-66
2021/03/02 00:48:54;;;;;;;1999.90;999.90;;;;;;;2.35;76.05;100045.31;4996433;28;20109;-66
2021/03/02 00:51:21;;;;;;;1999.90;999.90;;;;;;;2.17;76.84;100051.63;5004752;28;20054;-66
2021/03/02 00:53:47;;;;;;;1999.90;999.90;;;;;;;2.33;76.14;100055.63;5002927;28;20516;-66
2021/03/02 00:56:13;;;;;;;1999.90;999.90;;;;;;;2.33;76.19;100050.16;5009517;28;20057;-66
2021/03/02 00:58:41;;;;;;;1999.90;999.90;;;;;;;2.22;76.28;100054.53;5009011;28;20061;-66
2021/03/02 01:01:07;;;;;;;1999.90;999.90;;;;;;;2.27;76.08;100045.63;5002892;28;20053;-66
2021/03/02 01:03:33;;;;;;;1999.90;999.90;;;;;;;2.35;76.29;100048.03;5006277;28;20045;-66
2021/03/02 01:05:59;;;;;;;1999.90;999.90;;;;;;;2.43;75.89;100038.72;5008075;28;20092;-66
2021/03/02 01:08:25;;;;;;;1999.90;999.90;;;;;;;2.49;75.42;100040.53;5006903;28;20108;-66
2021/03/02 01:10:51;;;;;;;1999.90;999.90;;;;;;;2.28;75.55;100041.84;5004779;28;20050;-66
2021/03/02 01:13:18;;;;;;;1999.90;999.90;;;;;;;1.92;76.68;100044.38;5004854;28;20049;-66
2021/03/02 01:15:44;;;;;;;1999.90;999.90;;;;;;;1.99;76.79;100038.81;5007048;28;20045;-66
2021/03/02 01:18:11;;;;;;;1999.90;999.90;;;;;;;1.97;76.71;100042.88;5002659;28;20557;-66
2021/03/02 01:20:37;;;;;;;1999.90;999.90;;;;;;;2.10;76.31;100038.06;5007966;28;20347;-66
2021/03/02 01:23:04;;;;;;;1999.90;999.90;;;;;;;1.80;77.20;100040.72;5009543;28;20042;-66
2021/03/02 01:25:30;;;;;;;1999.90;999.90;;;;;;;1.93;77.06;100032.38;5009452;28;20053;-66
2021/03/02 01:27:57;;;;;;;1999.90;999.90;;;;;;;2.10;77.11;100026.34;5008092;28;20050;-66
2021/03/02 01:30:25;;;;;;;1999.90;999.90;;;;;;;2.26;77.04;100033.91;5008447;28;20468;-66
2021/03/02 01:32:51;;;;;;;1999.90;999.90;;;;;;;2.40;76.67;100022.78;5007877;28;20042;-66
2021/03/02 01:35:17;;;;;;;1999.90;999.90;;;;;;;2.42;77.27;100021.47;5009730;28;20069;-66
2021/03/02 01:37:44;;;;;;;1999.90;999.90;;;;;;;2.17;77.39;100020.78;5005242;28;20104;-66
2021/03/02 01:40:12;;;;;;;1999.90;999.90;;;;;;;2.24;78.58;100019.63;5007352;28;20077;-66
2021/03/02 01:42:39;;;;;;;1999.90;999.90;;;;;;;2.23;78.42;100012.50;5003643;28;20081;-66
2021/03/02 01:45:08;;;;;;;1999.90;999.90;;;;;;;2.30;78.68;100012.41;5007681;28;20050;-66
2021/03/02 01:47:35;;;;;;;1999.90;999.90;;;;;;;2.40;78.54;100011.88;5009554;28;20042;-66
2021/03/02 01:50:06;;;;;;;1999.90;999.90;;;;;;;2.34;78.35;100002.69;5003675;28;20564;-66
2021/03/02 01:52:33;;;;;;;1999.90;999.90;;;;;;;2.45;78.38;100012.81;5008302;28;20485;-66
2021/03/02 01:55:00;;;;;;;1999.90;999.90;;;;;;;2.54;77.75;100007.88;5008918;28;20050;-66
2021/03/02 01:57:26;;;;;;;1999.90;999.90;;;;;;;2.52;78.60;100003.72;5005566;28;20056;-66
2021/03/02 01:59:52;;;;;;;1999.90;999.90;;;;;;;2.34;78.95;99997.25;5008467;28;20480;-66
2021/03/02 02:02:28;;;;;;;1999.90;999.90;;;;;;;2.49;78.81;99999.56;5000564;28;20042;-66
2021/03/02 02:04:57;;;;;;;1999.90;999.90;;;;;;;2.66;78.97;99994.25;5007983;28;20490;-66
2021/03/02 02:07:37;;;;;;;1999.90;999.90;;;;;;;2.77;79.05;99990.72;5003253;28;20046;-66
2021/03/02 02:10:15;;;;;;;1999.90;999.90;;;;;;;2.84;79.25;99996.06;5002096;28;20489;-66
2021/03/02 02:12:56;;;;;;;1999.90;999.90;;;;;;;2.92;78.92;99997.66;4997334;28;20053;-66
2021/03/02 02:15:30;;;;;;;1999.90;999.90;;;;;;;2.60;79.84;99989.72;5004060;28;20042;-66
2021/03/02 02:18:09;;;;;;;1999.90;999.90;;;;;;;2.86;78.99;99993.09;5002533;28;20053;-66
2021/03/02 02:21:05;;;;;;;1999.90;999.90;;;;;;;2.91;79.57;99990.50;5004967;28;20137;-64
2021/03/02 02:23:34;;;;;;;1999.90;999.90;;;;;;;2.84;80.09;99984.31;4978690;28;20062;-64
2021/03/02 02:26:28;;;;;;;1999.90;999.90;;;;;;;2.89;80.04;99976.22;5005570;28;20132;-64
2021/03/02 02:28:57;;;;;;;1999.90;999.90;;;;;;;3.02;79.46;99978.75;5005567;28;20356;-64
2021/03/02 02:31:26;;;;;;;1999.90;999.90;;;;;;;3.08;79.50;99969.63;5003020;28;20065;-64
2021/03/02 02:33:53;;;;;;;1999.90;999.90;;;;;;;3.12;79.15;99965.31;5000999;28;20494;-64
2021/03/02 02:36:20;;;;;;;1999.90;999.90;;;;;;;3.07;79.59;99976.16;5005605;28;20054;-64
2021/03/02 02:38:52;;;;;;;1999.90;999.90;;;;;;;3.15;79.53;99967.56;5002284;28;20437;-64
2021/03/02 02:41:20;;;;;;;1999.90;999.90;;;;;;;3.05;79.93;99970.09;5002629;28;20050;-64
2021/03/02 02:43:48;;;;;;;1999.90;999.90;;;;;;;3.25;79.89;99975.19;5002623;28;20084;-66
2021/03/02 02:46:16;;;;;;;1999.90;999.90;;;;;;;3.26;79.65;99971.41;5006147;28;20320;-66
2021/03/02 02:48:44;;;;;;;1999.90;999.90;;;;;;;3.33;79.96;99965.81;5001446;28;20065;-66
2021/03/02 02:51:11;;;;;;;1999.90;999.90;;;;;;;3.21;80.34;99970.44;5006751;28;20092;-66
2021/03/02 02:53:38;;;;;;;1999.90;999.90;;;;;;;3.28;80.87;99963.78;5001326;28;20108;-66
2021/03/02 02:56:06;;;;;;;1999.90;999.90;;;;;;;3.26;80.80;99956.88;5005412;28;20050;-66
2021/03/02 02:59:10;;;;;;;1999.90;999.90;;;;;;;3.18;81.64;99961.63;4984927;28;20049;-66
2021/03/02 03:01:43;;;;;;;1999.90;999.90;;;;;;;3.09;82.40;99954.88;5001968;28;20057;-66
2021/03/02 03:04:13;;;;;;;1999.90;999.90;;;;;;;3.17;82.28;99957.25;5006829;28;20442;-66
2021/03/02 03:06:42;;;;;;;1999.90;999.90;;;;;;;3.16;82.49;99963.78;4997322;28;20053;-66
2021/03/02 03:09:08;;;;;;;1999.90;999.90;;;;;;;3.30;81.36;99961.63;4999984;28;20046;-66
2021/03/02 03:11:40;;;;;;;1999.90;999.90;;;;;;;3.35;81.22;99961.75;5005013;28;20050;-66
2021/03/02 03:14:09;;;;;;;1999.90;999.90;;;;;;;3.19;81.71;99962.47;5007282;28;20041;-66
2021/03/02 03:16:39;;;;;;;1999.90;999.90;;;;;;;3.17;81.26;99957.25;5006660;28;20053;-66
2021/03/02 03:19:08;;;;;;;1999.90;999.90;;;;;;;2.80;82.30;99960.19;5004963;28;20264;-66
2021/03/02 03:21:36;;;;;;;1999.90;999.90;;;;;;;2.46;83.15;99956.31;5001311;28;20045;-66
2021/03/02 03:24:03;;;;;;;1999.90;999.90;;;;;;;2.18;84.90;99968.69;4981472;28;20457;-66
2021/03/02 03:26:32;;;;;;;1999.90;999.90;;;;;;;2.36;83.69;99962.34;5007359;28;20046;-66
2021/03/02 03:29:00;;;;;;;1999.90;999.90;;;;;;;2.59;82.80;99958.00;5005976;28;20053;-66
2021/03/02 03:31:27;;;;;;;1999.90;999.90;;;;;;;2.64;82.24;99953.50;5005678;28;20046;-66
2021/03/02 03:33:55;;;;;;;1999.90;999.90;;;;;;;2.53;82.91;99956.22;5006733;28;20052;-66
2021/03/02 03:36:22;;;;;;;1999.90;999.90;;;;;;;2.42;82.45;99950.47;5002652;28;20084;-66
2021/03/02 03:38:48;;;;;;;1999.90;999.90;;;;;;;2.60;82.32;99959.69;5007243;28;20106;-66
2021/03/02 03:41:15;;;;;;;1999.90;999.90;;;;;;;2.36;83.24;99959.59;5003654;28;20108;-66
2021/03/02 03:43:41;;;;;;;1999.90;999.90;;;;;;;2.31;82.75;99959.47;5005832;28;20085;-66
2021/03/02 03:46:07;;;;;;;1999.90;999.90;;;;;;;2.47;82.76;99953.34;5004809;28;20053;-66
2021/03/02 03:48:34;;;;;;;1999.90;999.90;;;;;;;2.54;82.09;99960.63;5007061;28;20042;-66
2021/03/02 03:51:01;;;;;;;1999.90;999.90;;;;;;;2.56;82.21;99961.19;5005987;28;20046;-66
2021/03/02 03:53:32;;;;;;;1999.90;999.90;;;;;;;2.86;81.89;99961.16;5005291;28;20050;-66
2021/03/02 03:55:59;;;;;;;1999.90;999.90;;;;;;;2.92;81.48;99954.75;5002192;28;20054;-64
2021/03/02 03:58:29;;;;;;;1999.90;999.90;;;;;;;2.89;81.59;99955.22;5007017;28;20108;-64
2021/03/02 04:00:56;;;;;;;1999.90;999.90;;;;;;;3.01;81.68;99952.50;5003202;28;20053;-64
2021/03/02 04:03:24;;;;;;;1999.90;999.90;;;;;;;3.02;81.43;99959.59;5004318;28;20046;-64
2021/03/02 04:05:51;;;;;;;1999.90;999.90;;;;;;;2.67;82.92;99962.31;5004782;28;20124;-64
2021/03/02 04:08:17;;;;;;;1999.90;999.90;;;;;;;2.75;83.04;99962.78;5003554;28;20409;-65
2021/03/02 04:10:44;;;;;;;1999.90;999.90;;;;;;;2.97;82.36;99967.69;5003037;28;20141;-65
2021/03/02 04:13:15;;;;;;;1999.90;999.90;;;;;;;2.95;82.49;99947.97;5002427;28;20046;-65
2021/03/02 04:15:43;;;;;;;1999.90;999.90;;;;;;;2.77;82.77;99949.75;5004989;28;20080;-65
2021/03/02 04:18:14;;;;;;;1999.90;999.90;;;;;;;2.75;83.70;99954.59;5001754;28;20050;-65
2021/03/02 04:20:41;;;;;;;1999.90;999.90;;;;;;;2.32;85.43;99952.94;4998946;28;20343;-65
2021/03/02 04:23:09;;;;;;;1999.90;999.90;;;;;;;2.75;85.13;99960.06;5005294;28;20512;-66
2021/03/02 04:25:36;;;;;;;1999.90;999.90;;;;;;;2.80;84.21;99952.00;5004652;28;20057;-65
2021/03/02 04:28:03;;;;;;;1999.90;999.90;;;;;;;2.42;85.34;99947.75;5001326;28;20046;-65
2021/03/02 04:30:30;;;;;;;1999.90;999.90;;;;;;;2.75;84.98;99953.75;4999167;28;20430;-66
2021/03/02 04:32:56;;;;;;;1999.90;999.90;;;;;;;2.65;84.81;99959.81;5004923;28;20520;-66
2021/03/02 04:35:22;;;;;;;1999.90;999.90;;;;;;;2.80;84.34;99957.47;5000668;28;20096;-66
2021/03/02 04:37:48;;;;;;;1999.90;999.90;;;;;;;2.91;83.60;99952.25;5001347;28;20045;-66
2021/03/02 04:40:15;;;;;;;1999.90;999.90;;;;;;;2.85;83.56;99953.19;4999116;28;20054;-66
2021/03/02 04:42:42;;;;;;;1999.90;999.90;;;;;;;2.25;85.56;99952.22;5003299;28;20555;-66
2021/03/02 04:45:09;;;;;;;1999.90;999.90;;;;;;;2.52;85.64;99957.28;5000098;28;20541;-66
2021/03/02 04:47:36;;;;;;;1999.90;999.90;;;;;;;2.66;84.40;99961.47;5000741;28;20453;-66
2021/03/02 04:50:05;;;;;;;1999.90;999.90;;;;;;;2.84;83.65;99951.53;5003297;28;20073;-66
2021/03/02 04:52:31;;;;;;;1999.90;999.90;;;;;;;2.87;82.76;99957.34;5003635;28;20050;-65
2021/03/02 04:54:57;;;;;;;1999.90;999.90;;;;;;;2.72;83.68;99968.72;5003049;28;20050;-66
2021/03/02 04:57:23;;;;;;;1999.90;999.90;;;;;;;2.95;83.48;99967.94;5002984;28;21039;-65
2021/03/02 04:59:50;;;;;;;1999.90;999.90;;;;;;;2.74;83.82;99960.28;5002978;28;20465;-66
2021/03/02 05:02:17;;;;;;;1999.90;999.90;;;;;;;2.96;82.93;99966.03;4995838;28;20550;-66
2021/03/02 05:04:44;;;;;;;1999.90;999.90;;;;;;;2.97;83.15;99964.97;4976428;28;20130;-66
2021/03/02 05:07:10;;;;;;;1999.90;999.90;;;;;;;3.09;82.67;99970.44;4998966;28;20050;-66
2021/03/02 05:09:36;;;;;;;1999.90;999.90;;;;;;;3.00;82.64;99968.03;4999492;28;20571;-66
2021/03/02 05:12:02;;;;;;;1999.90;999.90;;;;;;;2.98;82.89;99959.25;4999811;28;20053;-66
2021/03/02 05:14:28;;;;;;;1999.90;999.90;;;;;;;2.81;83.04;99964.59;4999523;28;20349;-65
2021/03/02 05:16:54;;;;;;;1999.90;999.90;;;;;;;2.55;83.62;99963.09;4999019;28;20054;-65
2021/03/02 05:19:20;;;;;;;1999.90;999.90;;;;;;;2.59;83.18;99963.47;4999730;28;20128;-66
2021/03/02 05:21:46;;;;;;;1999.90;999.90;;;;;;;2.92;82.87;99965.69;4994495;28;20050;-66
2021/03/02 05:24:12;;;;;;;1999.90;999.90;;;;;;;2.95;82.25;99961.66;4997209;28;20102;-66
2021/03/02 05:26:39;;;;;;;1999.90;999.90;;;;;;;2.99;82.04;99954.63;4997927;28;20099;-66
2021/03/02 05:29:05;;;;;;;1999.90;999.90;;;;;;;2.79;82.67;99961.25;4995349;28;20050;-66
2021/03/02 05:31:31;;;;;;;1999.90;999.90;;;;;;;2.81;82.71;99958.28;4999395;28;20104;-65
2021/03/02 05:33:57;;;;;;;1999.90;999.90;;;;;;;2.69;82.83;99954.72;4982508;28;20077;-65
2021/03/02 05:36:24;;;;;;;1999.90;999.90;;;;;;;2.73;83.15;99956.72;4997675;28;20073;-65
2021/03/02 05:38:50;;;;;;;1999.90;999.90;;;;;;;2.81;82.71;99955.56;4997483;28;20111;-65
2021/03/02 05:41:17;;;;;;;1999.90;999.90;;;;;;;2.75;82.97;99949.13;4991351;28;20394;-65
2021/03/02 05:43:44;;;;;;;1999.90;999.90;;;;;;;2.75;83.20;99954.59;5003858;28;20132;-65
2021/03/02 05:46:30;;;;;;;1999.90;999.90;;;;;;;2.46;83.66;99946.22;5003074;28;20077;-65
2021/03/02 05:48:56;;;;;;;1999.90;999.90;;;;;;;2.61;83.67;99953.16;5002405;28;20050;-65
2021/03/02 05:51:22;;;;;;;1999.90;999.90;;;;;;;2.75;83.22;99943.66;4997570;28;20050;-65
2021/03/02 05:53:49;;;;;;;1999.90;999.90;;;;;;;2.60;83.17;99946.00;4998266;28;20065;-65
2021/03/02 05:56:15;;;;;;;1999.90;999.90;;;;;;;2.20;84.31;99938.41;5001778;28;20425;-65
2021/03/02 05:58:42;;;;;;;1999.90;999.90;;;;;;;2.57;84.03;99939.13;5002863;28;20583;-65
2021/03/02 06:01:08;;;;;;;1999.90;999.90;;;;;;;2.50;83.91;99943.03;5003772;28;20084;-65
2021/03/02 06:03:36;;;;;;;1999.90;999.90;;;;;;;2.44;84.22;99951.09;5003421;28;20046;-65
2021/03/02 06:06:04;;;;;;;1999.90;999.90;;;;;;;2.32;84.80;99952.94;4997776;28;20058;-65
2021/03/02 06:08:30;;;;;;;1999.90;999.90;;;;;;;2.31;85.17;99936.78;5003511;28;20476;-65
2021/03/02 06:10:56;;;;;;;1999.90;999.90;;;;;;;2.34;84.87;99956.28;4998337;28;20128;-65
2021/03/02 06:13:27;;;;;;;1999.90;999.90;;;;;;;2.07;85.20;99959.38;5002929;28;20720;-65
2021/03/02 06:15:57;;;;;;;1999.90;999.90;;;;;;;2.36;85.16;99956.88;5003440;28;20170;-65
2021/03/02 06:18:24;;;;;;;1999.90;999.90;;;;;;;2.49;85.14;99950.38;5003981;28;20104;-65
2021/03/02 06:20:51;;;;;;;1999.90;999.90;;;;;;;2.57;84.40;99957.41;5004472;28;20148;-65
2021/03/02 06:23:45;;;;;;;1999.90;999.90;;;;;;;2.16;85.22;99956.31;5003145;28;20048;-65
2021/03/02 06:26:11;;;;;;;1999.90;999.90;;;;;;;2.26;85.57;99957.44;5002003;28;20096;-65
2021/03/02 06:28:42;;;;;;;1999.90;999.90;;;;;;;2.38;85.22;99938.38;5000531;28;20432;-65
2021/03/02 06:31:38;;;;;;;1999.90;999.90;;;;;;;2.36;85.26;99945.13;5004347;28;20444;-65
2021/03/02 06:34:08;;;;;;;1999.90;999.90;;;;;;;2.33;85.26;99957.34;5001188;28;20061;-65
2021/03/02 06:36:36;;;;;;;1999.90;999.90;;;;;;;2.23;85.51;99954.34;5002519;28;20580;-65
2021/03/02 06:39:34;;;;;;;1999.90;999.90;;;;;;;2.45;85.76;99963.66;4998388;28;20050;-65
2021/03/02 06:42:20;;;;;;;1999.90;999.90;;;;;;;2.62;85.04;99954.78;5003271;28;20049;-65
2021/03/02 06:44:49;;;;;;;1999.90;999.90;;;;;;;2.63;84.75;99961.94;5002818;28;20802;-65
2021/03/02 06:47:33;;;;;;;1999.90;999.90;;;;;;;2.36;86.11;99956.88;5003944;28;20054;-66
2021/03/02 06:50:01;;;;;;;1999.90;999.90;;;;;;;2.49;86.10;99955.00;5002129;28;20057;-66
2021/03/02 06:52:35;;;;;;;1999.90;999.90;;;;;;;2.28;85.84;99960.78;5000376;28;20057;-66
2021/03/02 06:55:02;;;;;;;1999.90;999.90;;;;;;;2.40;87.27;99963.53;4998225;28;20069;-66
2021/03/02 06:57:28;;;;;;;1999.90;999.90;;;;;;;2.56;86.47;99962.06;4995853;28;20049;-66
2021/03/02 06:59:56;;;;;;;1999.90;999.90;;;;;;;2.60;85.73;99970.59;5002998;28;20112;-66
2021/03/02 07:02:35;;;;;;;1999.90;999.90;;;;;;;2.74;85.70;99966.59;5001264;28;20115;-66
2021/03/02 07:05:06;;;;;;;1999.90;999.90;;;;;;;2.79;85.23;99966.72;4998332;28;20057;-66
2021/03/02 07:07:33;;;;;;;1999.90;999.90;;;;;;;2.98;85.10;99961.19;4999686;28;20054;-66
2021/03/02 07:10:00;;;;;;;1999.90;999.90;;;;;;;3.04;85.06;99962.97;5003486;28;20661;-66
2021/03/02 07:12:32;;;;;;;1999.90;999.90;;;;;;;2.96;85.88;99966.03;5003008;28;20057;-66
2021/03/02 07:15:04;;;;;;;1999.90;999.90;;;;;;;2.86;85.60;99965.78;5001106;28;20053;-66
2021/03/02 07:17:37;;;;;;;1999.90;999.90;;;;;;;3.23;85.39;99965.56;4999159;28;20382;-66
2021/03/02 07:20:07;;;;;;;1999.90;999.90;;;;;;;3.37;84.26;99972.47;4998658;28;20065;-66
2021/03/02 07:22:36;;;;;;;1999.90;999.90;;;;;;;3.45;84.05;99974.00;4999489;28;20045;-67
2021/03/02 07:25:07;;;;;;;1999.90;999.90;;;;;;;3.49;84.61;99976.00;5001534;28;20050;-64
2021/03/02 07:27:36;;;;;;;1999.90;999.90;;;;;;;3.57;83.90;99974.00;5002249;28;20390;-65
2021/03/02 07:30:05;;;;;;;1999.90;999.90;;;;;;;3.65;83.92;99962.69;5001230;28;20246;-65
2021/03/02 07:32:31;;;;;;;1999.90;999.90;;;;;;;3.30;84.95;99956.16;5000791;28;20053;-65
2021/03/02 07:34:58;;;;;;;1999.90;999.90;;;;;;;3.56;84.77;99964.09;5002923;28;20061;-64
2021/03/02 07:37:25;;;;;;;1999.90;999.90;;;;;;;3.91;84.07;99960.47;5000968;28;20051;-65
2021/03/02 07:40:05;;;;;;;1999.90;999.90;;;;;;;3.49;85.22;99967.00;5002535;28;20496;-65
2021/03/02 07:42:32;;;;;;;1999.90;999.90;;;;;;;3.24;86.43;99972.69;5000195;28;20049;-64
2021/03/02 07:45:28;;;;;;;1999.90;999.90;;;;;;;3.68;85.72;99976.72;5002698;28;20054;-65
2021/03/02 07:47:58;;;;;;;1999.90;999.90;;;;;;;4.03;84.91;99966.75;5001496;28;20404;-64
2021/03/02 07:50:32;;;;;;;1999.90;999.90;;;;;;;4.15;84.81;99967.53;5002883;28;20049;-66
2021/03/02 07:53:16;;;;;;;1999.90;999.90;;;;;;;4.43;84.83;99968.59;5002571;28;20042;-65
2021/03/02 07:55:43;;;;;;;1999.90;999.90;;;;;;;4.58;84.13;99963.44;4996776;28;20057;-65
2021/03/02 07:58:21;;;;;;;1999.90;999.90;;;;;;;4.88;83.34;99964.19;5003344;28;20240;-65
2021/03/02 08:00:49;;;;;;;1999.90;999.90;;;;;;;4.48;83.60;99963.25;5000556;28;20061;-65
2021/03/02 08:03:18;;;;;;;1999.90;999.90;;;;;;;4.45;84.36;99965.63;4998151;28;20053;-65
2021/03/02 08:05:47;;;;;;;1999.90;999.90;;;;;;;4.89;83.99;99963.09;4994098;28;20473;-65
2021/03/02 08:08:25;;;;;;;1999.90;999.90;;;;;;;4.93;83.59;99967.84;5000952;28;20053;-65
2021/03/02 08:10:56;;;;;;;1999.90;999.90;;;;;;;5.00;82.72;99964.09;4998203;28;20160;-65
2021/03/02 08:13:43;;;;;;;1999.90;999.90;;;;;;;5.20;82.84;99967.16;4999735;28;20692;-65
2021/03/02 08:16:13;;;;;;;1999.90;999.90;;;;;;;5.20;81.76;99972.66;5001210;28;20046;-65
2021/03/02 08:18:40;;;;;;;1999.90;999.90;;;;;;;5.15;80.79;99971.72;5001838;28;20445;-65
2021/03/02 08:21:13;;;;;;;1999.90;999.90;;;;;;;5.31;82.01;99967.31;4983603;28;20084;-66
2021/03/02 08:23:56;;;;;;;1999.90;999.90;;;;;;;5.64;80.03;99967.25;4998301;28;20781;-66
2021/03/02 08:26:27;;;;;;;1999.90;999.90;;;;;;;5.75;79.50;99965.47;4998328;28;20042;-66
2021/03/02 08:29:13;;;;;;;1999.90;999.90;;;;;;;6.52;77.78;99965.59;4999735;28;20497;-66
2021/03/02 08:31:49;;;;;;;1999.90;999.90;;;;;;;6.23;76.45;99968.56;4998637;28;20464;-65
2021/03/02 08:34:17;;;;;;;1999.90;999.90;;;;;;;6.28;77.78;99963.13;5000762;28;20504;-66
2021/03/02 08:36:51;;;;;;;1999.90;999.90;;;;;;;7.13;75.65;99958.94;5000033;28;20052;-65
2021/03/02 08:39:19;;;;;;;1999.90;999.90;;;;;;;7.01;74.35;99956.38;4999634;28;20045;-66
2021/03/02 08:41:47;;;;;;;1999.90;999.90;;;;;;;6.61;74.75;99963.16;5001075;28;20065;-65
2021/03/02 08:44:22;;;;;;;1999.90;999.90;;;;;;;6.86;73.96;99959.81;4997177;28;20101;-65
2021/03/02 08:46:54;;;;;;;1999.90;999.90;;;;;;;7.34;74.28;99958.00;5002162;28;20461;-65
2021/03/02 08:49:22;;;;;;;1999.90;999.90;;;;;;;7.87;72.31;99960.75;4995996;28;20064;-65
2021/03/02 08:51:48;;;;;;;1999.90;999.90;;;;;;;8.16;70.90;99965.84;4997880;28;20053;-66
2021/03/02 08:54:15;;;;;;;1999.90;999.90;;;;;;;7.71;71.87;99962.63;4977062;28;20493;-65
2021/03/02 08:56:41;;;;;;;1999.90;999.90;;;;;;;8.43;70.34;99962.88;5001203;28;20049;-65
2021/03/02 08:59:14;;;;;;;1999.90;999.90;;;;;;;8.72;69.45;99965.16;5000693;28;20058;-66
2021/03/02 09:01:41;;;;;;;1999.90;999.90;;;;;;;9.30;68.06;99967.66;5002097;28;20058;-66
2021/03/02 09:04:18;;;;;;;1999.90;999.90;;;;;;;8.90;67.91;99977.59;5002073;28;20136;-66
2021/03/02 09:06:46;;;;;;;1999.90;999.90;;;;;;;9.52;65.94;99975.63;5000341;28;20124;-66
2021/03/02 09:09:32;;;;;;;1999.90;999.90;;;;;;;9.71;65.29;99972.28;4998144;28;20054;-66
2021/03/02 09:11:59;;;;;;;1999.90;999.90;;;;;;;9.78;66.15;99969.19;5001715;28;20054;-66
2021/03/02 09:14:33;;;;;;;1999.90;999.90;;;;;;;10.25;64.07;99969.84;4984885;28;20124;-66
2021/03/02 09:17:07;;;;;;;1999.90;999.90;;;;;;;10.38;63.08;99970.09;5002648;28;20409;-66
2021/03/02 09:19:39;;;;;;;1999.90;999.90;;;;;;;10.17;63.39;99968.53;5005985;28;20054;-65
2021/03/02 09:22:15;;;;;;;;;;;;;;;10.79;62.47;99974.53;5005118;28;20108;-65
2021/03/02 09:24:45;;;;;;;1999.90;999.90;;;;;;;10.97;60.89;99977.72;5003476;28;19925;-65
2021/03/02 09:27:16;;;;;;;1999.90;999.90;;;;;;;11.07;60.05;99975.69;5001561;28;20045;-65
2021/03/02 09:29:44;;;;;;;1999.90;999.90;;;;;;;11.10;59.60;99979.81;5004630;28;20123;-65
2021/03/02 09:32:13;;;;;;;1999.90;999.90;;;;;;;11.19;60.08;99988.34;5004445;28;20054;-65
2021/03/02 09:34:45;;;;;;;1999.90;999.90;;;;;;;11.93;58.29;99986.25;4999034;28;20199;-65
2021/03/02 09:37:16;;;;;;;1999.90;999.90;;;;;;;11.19;59.18;99993.88;5004112;28;20170;-65
2021/03/02 09:39:54;;;;;;;1999.90;999.90;;;;;;;12.25;57.55;99987.53;5004218;28;20279;-65
2021/03/02 09:42:25;;;;;;;1999.90;999.90;;;;;;;12.43;56.24;99988.69;5003380;28;20053;-65
2021/03/02 09:44:53;;;;;;;;;;;;;;;12.10;57.11;99982.16;5004101;28;20143;-65
2021/03/02 09:47:26;;;;;;;1999.90;999.90;;;;;;;12.51;55.14;99987.19;4999962;28;19925;-65
2021/03/02 09:49:57;;;;;;;1999.90;999.90;;;;;;;12.17;56.15;99996.50;5003666;28;20079;-65
2021/03/02 09:52:47;;;;;;;1999.90;999.90;;;;;;;11.82;56.63;99993.00;4989989;28;20053;-65
2021/03/02 09:55:20;;;;;;;1999.90;999.90;;;;;;;12.17;55.08;99996.50;4994343;28;20077;-65
2021/03/02 09:58:12;;;;;;;1999.90;999.90;;;;;;;12.01;55.21;99995.84;4999430;28;20267;-65
2021/03/02 10:00:44;;;;;;;1999.90;999.90;;;;;;;12.59;55.16;99992.03;5004041;28;20158;-65
2021/03/02 10:03:13;;;;;;;1999.90;999.90;;;;;;;12.40;53.95;99996.75;5001673;28;20050;-65
2021/03/02 10:05:57;;;;;;;1999.90;999.90;;;;;;;12.22;53.71;99996.44;5000399;28;20073;-65
2021/03/02 10:08:23;;;;;;;1999.90;999.90;;;;;;;11.80;54.72;99993.31;5001486;28;20176;-65
2021/03/02 10:10:58;;;;;;;1999.90;999.90;;;;;;;11.76;55.78;99986.69;5000909;28;20326;-65
2021/03/02 10:13:29;;;;;;;1999.90;999.90;;;;;;;11.89;54.84;99985.13;5003072;28;20073;-65
2021/03/02 10:16:14;;;;;;;1999.90;999.90;;;;;;;11.97;54.47;99995.63;5005045;28;20053;-65
2021/03/02 10:18:47;;;;;;;1999.90;999.90;;;;;;;11.53;55.02;99993.84;5002069;28;20065;-65
2021/03/02 10:21:13;;;;;;;1999.90;999.90;;;;;;;12.39;54.87;99995.13;4999013;28;20064;-65
2021/03/02 10:23:47;;;;;;;1999.90;999.90;;;;;;;12.99;52.85;100002.84;5000554;28;20062;-65
2021/03/02 10:26:23;;;;;;;1999.90;999.90;;;;;;;12.69;52.10;100003.00;5004602;28;20046;-65
2021/03/02 10:28:49;;;;;;;1999.90;999.90;;;;;;;12.19;53.22;99993.44;5000962;28;20046;-65
2021/03/02 10:31:16;;;;;;;1999.90;999.90;;;;;;;12.35;52.56;99980.19;5004573;28;20053;-65
2021/03/02 10:33:42;;;;;;;1999.90;999.90;;;;;;;11.93;52.67;99988.19;5000518;28;20081;-66
2021/03/02 10:36:26;;;;;;;1999.90;999.90;;;;;;;12.07;52.95;99991.06;5002310;28;20058;-66
2021/03/02 10:38:55;;;;;;;1999.90;999.90;;;;;;;12.41;52.27;99990.91;5000058;28;20049;-65
2021/03/02 10:41:22;;;;;;;1999.90;999.90;;;;;;;12.85;53.02;99986.97;5000646;28;22002;-66
2021/03/02 10:43:49;;;;;;;1999.90;999.90;;;;;;;12.86;50.39;99980.28;4998115;28;20061;-65
2021/03/02 10:46:17;;;;;;;1999.90;999.90;;;;;;;13.01;50.57;99975.59;5001738;28;20609;-65
2021/03/02 10:48:44;;;;;;;1999.90;999.90;;;;;;;13.35;49.62;99980.91;5001949;28;20104;-65
2021/03/02 10:51:11;;;;;;;1999.90;999.90;;;;;;;13.34;49.13;99978.44;4997240;28;20572;-65
2021/03/02 10:53:37;;;;;;;1999.90;999.90;;;;;;;12.87;50.34;99975.53;5003029;28;20062;-65
2021/03/02 10:56:05;;;;;;;1999.90;999.90;;;;;;;12.75;49.76;99976.00;4999268;28;20050;-65
2021/03/02 10:58:31;;;;;;;1999.90;999.90;;;;;;;13.02;50.54;99966.97;5003488;28;20404;-66
2021/03/02 11:00:57;;;;;;;1999.90;999.90;;;;;;;12.73;50.15;99963.53;5000652;28;20498;-67
2021/03/02 11:03:24;;;;;;;1999.90;999.90;;;;;;;13.06;50.50;99960.84;4999183;28;20554;-65
2021/03/02 11:05:51;;;;;;;1999.90;999.90;;;;;;;14.01;48.67;99964.09;5000686;28;20551;-66
2021/03/02 11:08:18;;;;;;;1999.90;999.90;;;;;;;13.97;47.13;99959.47;5002089;28;20508;-66
2021/03/02 11:10:46;;;;;;;1999.90;999.90;;;;;;;14.11;47.38;99951.09;5003957;28;20054;-66
2021/03/02 11:13:14;;;;;;;1999.90;999.90;;;;;;;13.70;47.65;99952.75;4983350;28;20530;-66